KSBO

East Georgia Regional Airport

Swainsboro, Georgia, USA
METAR KSBO 170355Z AUTO 00000KT 10SM BKN048 BKN055 OVC070 24/23 A3012 RMK AO2 LTG DSNT NE
Observed Flight Rules
Oct-17 @ 03:55 UTC (an hour ago) Visual Flight Rules
Visibility Clouds
10 miles
  • Broken at 4,800' AGL
  • Broken at 5,500' AGL
  • Overcast at 7,000' AGL
Temperatures Readings
Current 24°C / 75°F
Dewpoint 23°C / 73°F
Humidity 94%
Altimeter 30.12" Hg
Pressure 1020 hPa
Elevation 100
METAR KSBO 170355Z AUTO 00000KT 10SM BKN048 BKN055 OVC070 24/23 A3012 RMK AO2 LTG DSNT NE
Observed Flight Rules
Oct-17 @ 03:55 UTC
(an hour ago)
VFR
Clouds
  • Broken at 4,800' AGL
  • Broken at 5,500' AGL
  • Overcast at 7,000' AGL
Temperature Dewpoint
24°C / 75°F 23°C / 73°F
Humidity Altimeter Pressure
94% 30.12" Hg 1020 hPa